PDT,Max TemperatureF,Mean TemperatureF,Min TemperatureF,Max Dew PointF,MeanDew PointF,Min DewpointF,Max Humidity, Mean Humidity, Min Humidity, Max Sea Level PressureIn, Mean Sea Level PressureIn, Min Sea Level PressureIn, Max VisibilityMiles, Mean VisibilityMiles, Min VisibilityMiles, Max Wind SpeedMPH, Mean Wind SpeedMPH, Max Gust SpeedMPH,PrecipitationIn, CloudCover, Events, WindDirDegrees
2013-3-1,55,53,51,55,54,52,100,100,100,30.44,30.42,30.38,10,10,10,6,4,,0.00,8,,220
2013-3-2,51,46,42,52,48,43,100,100,100,30.24,30.20,30.13,10,8,0,7,2,,0.00,8,Fog,237
2013-3-3,50,44,39,41,38,36,100,75,58,30.31,30.29,30.27,10,10,10,12,7,17,0.00,6,,222
2013-3-4,53,44,35,36,32,30,100,62,41,30.22,30.13,30.04,10,10,10,21,14,32,0.00,4,,61
2013-3-5,42,40,39,43,37,30,100,85,65,29.91,29.87,29.83,10,10,10,12,7,20,0.00,8,Rain,108
2013-3-6,42,40,39,43,41,39,100,100,100,29.83,29.72,29.61,10,8,2,6,3,,0.00,8,Rain,265
2013-3-7,53,44,35,46,41,36,100,94,77,30.09,30.06,30.01,10,10,10,4,2,,0.00,3,,105
2013-3-8,50,41,32,45,37,32,100,88,71,30.09,30.09,30.08,10,10,10,4,3,,0.00,1,,92
2013-3-9,57,44,30,36,33,30,100,67,41,30.44,30.40,30.36,10,6,0,12,4,,0.00,2,Fog,204
2013-3-10,51,42,33,48,41,34,100,93,62,30.50,30.46,30.43,10,10,9,8,3,,0.00,8,Rain,235
2013-3-11,51,48,44,52,48,45,100,100,100,30.40,30.36,30.29,10,7,4,5,2,,0.00,7,Rain,236
2013-3-12,55,48,46,55,49,46,100,100,100,30.19,30.19,30.18,10,6,5,4,1,,0.00,8,Rain,270
2013-3-13,66,54,42,54,48,43,100,86,60,30.24,30.20,30.14,10,10,10,6,3,,0.00,7,,157
2013-3-14,62,52,42,54,47,43,100,81,59,30.13,30.10,30.09,10,10,10,10,4,,0.00,8,,249
2013-3-15,62,55,48,52,50,48,100,87,63,30.25,30.22,30.17,10,8,3,6,2,,0.00,8,,82
2013-3-16,50,48,44,50,48,45,100,100,100,30.12,30.06,29.99,10,8,5,15,8,21,0.00,8,Rain,229
2013-3-17,46,42,39,43,40,39,100,94,76,30.28,30.25,30.22,10,10,5,15,11,22,0.00,8,Rain,236
2013-3-18,51,45,39,43,40,37,100,78,58,30.28,30.26,30.24,10,10,10,10,6,,0.00,7,Rain,229
2013-3-19,48,44,39,45,36,34,100,75,62,30.16,30.08,29.95,10,10,10,17,13,28,0.00,8,Rain,73
2013-3-20,48,44,39,46,43,39,100,98,87,29.92,29.75,29.59,10,8,4,15,6,23,0.00,8,Rain,224
2013-3-21,42,40,37,41,40,37,100,98,87,30.27,30.24,30.19,10,8,5,13,8,17,0.00,8,Rain,233
2013-3-22,37,34,33,37,36,34,100,100,100,30.31,30.31,30.30,10,9,8,8,8,,0.00,7,,220
2013-3-23,35,32,32,36,33,32,100,100,100,30.40,30.40,30.40,10,10,10,0,0,,0.00,8,,-1
2013-3-24,39,37,37,37,36,32,100,92,75,30.29,30.29,30.28,10,10,10,12,7,18,0.00,8,,73
2013-3-25,59,49,39,39,34,32,87,52,38,30.11,30.03,29.96,10,10,10,18,10,24,0.00,7,,59
2013-3-26,53,45,37,45,42,37,100,84,67,30.04,30.02,29.99,10,10,10,5,2,,0.00,8,,332
2013-3-27,62,50,39,48,45,39,100,78,59,29.98,29.95,29.92,10,10,10,6,1,,0.00,7,,58
2013-3-28,59,50,44,52,48,45,100,96,72,30.11,30.08,30.06,10,10,10,4,1,,0.00,7,Rain,22
2013-3-29,68,50,44,54,48,45,100,89,60,30.23,30.21,30.15,10,10,10,4,1,,0.00,6,,13
2013-3-30,73,58,42,52,49,43,100,64,44,30.22,30.14,30.04,10,10,10,16,7,23,0.00,1,,61
2013-3-31,75,60,44,48,47,45,100,60,34,30.04,29.98,29.89,10,10,10,14,5,22,0.00,3,,42